Accueil
METAR-TAF:

METAR-TAF

Aéroports :

Plate-forme pétrolière

P11-b, Pays-Bas

latitude: 52-21-36N, longitude: 3-20-30E, altitude: 24 m

Observation

Le bulletin a été fait il y a 38 minutes, à 13:25 UTC
Vent 21 kt de nord-ouest, variant entre ouest et nord
Température 13°C
Humidité 72%
Pression 1024 hPa
Visibilité 10 km ou plus

METAR: EHPG 211325Z AUTO 31021KT 260V360 9999 FEW012/// SCT022/// BKN030/// 13/08 Q1024 REDZ W///H///

Heure: 16:03 (14:03 UTC)


TAF: absent

Observations et prévisions météorologiques de plus de 4000 aéroports (messages METAR et TAF).

Les stations disponibles sont représentées par des disques jaunes et rouges sur la carte.

Passer la souris dessus pour voir le nom de la station.

Cliquer dessus pour voir les observations et prévisions météorologiques.

Pour changer de carte: cliquez sur les boutons verts avec une croix noire pour zoomer, sur le bouton vert avec un tiret pour effectuer un zoom arrière, ou sur les flèches vertes pour les cartes adjacentes.


METAR-TAF: